createdAt,value
2016-12-27T00:00:32.367Z,28.8
2016-12-27T00:01:32.351Z,28.8
2016-12-27T00:02:32.555Z,28.8
2016-12-27T00:03:33.670Z,28.8
2016-12-27T00:04:32.695Z,28.8
2016-12-27T00:05:33.790Z,28.8
2016-12-27T00:06:33.810Z,28.8
2016-12-27T00:07:33.781Z,28.8
2016-12-27T00:08:32.907Z,28.8
2016-12-27T00:09:33.960Z,28.8
2016-12-27T00:10:33.014Z,28.8
2016-12-27T00:11:34.080Z,28.8
2016-12-27T00:12:33.117Z,28.8
2016-12-27T00:13:34.194Z,28.8
2016-12-27T00:14:34.335Z,28.8
2016-12-27T00:15:33.234Z,28.8
2016-12-27T00:16:34.400Z,28.8
2016-12-27T00:17:34.514Z,28.8
2016-12-27T00:18:34.531Z,28.7
2016-12-27T00:19:34.531Z,28.8
2016-12-27T00:20:33.508Z,28.8
2016-12-27T00:21:34.678Z,28.8
2016-12-27T00:22:34.694Z,28.8
2016-12-27T00:23:34.721Z,28.8
2016-12-27T00:24:34.815Z,28.8
2016-12-27T00:25:34.816Z,28.8
2016-12-27T00:26:33.820Z,28.8
2016-12-27T00:27:33.784Z,28.7
2016-12-27T00:28:33.903Z,28.8
2016-12-27T00:29:34.024Z,28.7
2016-12-27T00:30:34.025Z,28.8
2016-12-27T00:31:34.148Z,28.8
2016-12-27T00:32:35.132Z,28.7
2016-12-27T00:33:34.144Z,28.8
2016-12-27T00:34:34.226Z,28.7
2016-12-27T00:35:34.411Z,28.8
2016-12-27T00:36:34.372Z,28.7
2016-12-27T00:37:35.610Z,28.7
2016-12-27T00:38:34.537Z,28.7
2016-12-27T00:39:35.783Z,28.7
2016-12-27T00:40:35.848Z,28.7
2016-12-27T00:41:34.773Z,28.7
2016-12-27T00:42:35.967Z,28.7
2016-12-27T00:43:35.994Z,28.7
2016-12-27T00:44:36.189Z,28.7
2016-12-27T00:45:36.702Z,28.7
2016-12-27T00:46:36.186Z,28.7
2016-12-27T00:47:35.967Z,28.7
2016-12-27T00:48:35.246Z,28.7
2016-12-27T00:49:36.404Z,28.7
2016-12-27T00:50:36.454Z,28.7
2016-12-27T00:51:36.539Z,28.7
2016-12-27T00:52:35.476Z,28.7
2016-12-27T00:53:36.642Z,28.7
2016-12-27T00:54:35.682Z,28.7
2016-12-27T00:55:36.700Z,28.7
2016-12-27T00:56:36.702Z,28.7
2016-12-27T00:57:35.740Z,28.7
2016-12-27T00:58:36.946Z,28.7
2016-12-27T00:59:35.925Z,28.7
2016-12-27T01:00:37.016Z,28.7
2016-12-27T01:01:37.024Z,28.7
2016-12-27T01:02:36.097Z,28.7
2016-12-27T01:03:37.139Z,28.7
2016-12-27T01:04:37.176Z,28.7
2016-12-27T01:05:37.273Z,28.7
2016-12-27T01:06:37.305Z,28.7
2016-12-27T01:07:37.330Z,28.7
2016-12-27T01:08:36.405Z,28.7
2016-12-27T01:09:36.439Z,28.7
2016-12-27T01:10:37.503Z,28.7
2016-12-27T01:11:37.602Z,28.7
2016-12-27T01:12:37.649Z,28.7
2016-12-27T01:13:37.713Z,28.7
2016-12-27T01:14:37.753Z,28.7
2016-12-27T01:15:36.733Z,28.7
2016-12-27T01:16:37.963Z,28.7
2016-12-27T01:17:36.967Z,28.7
2016-12-27T01:18:38.033Z,28.7
2016-12-27T01:19:38.112Z,28.7
2016-12-27T01:20:38.194Z,28.7
2016-12-27T01:21:38.183Z,28.7
2016-12-27T01:22:38.221Z,28.7
2016-12-27T01:23:37.284Z,28.7
2016-12-27T01:24:38.334Z,28.7
2016-12-27T01:25:37.267Z,28.7
2016-12-27T01:26:37.280Z,28.7
2016-12-27T01:27:38.413Z,28.7
2016-12-27T01:28:38.572Z,28.7
2016-12-27T01:29:37.588Z,28.7
2016-12-27T01:30:37.636Z,28.7
2016-12-27T01:31:37.704Z,28.7
2016-12-27T01:32:38.778Z,28.7
2016-12-27T01:33:38.856Z,28.7
2016-12-27T01:34:38.923Z,28.7
2016-12-27T01:35:39.092Z,28.7
2016-12-27T01:36:39.026Z,28.7
2016-12-27T01:37:38.013Z,28.7
2016-12-27T01:38:38.117Z,28.7
2016-12-27T01:39:38.154Z,28.7
2016-12-27T01:40:39.152Z,28.7
2016-12-27T01:41:39.249Z,28.7
2016-12-27T01:42:38.333Z,28.7
2016-12-27T01:43:38.370Z,28.7
2016-12-27T01:44:39.514Z,28.7
2016-12-27T01:45:38.499Z,28.7
2016-12-27T01:46:38.515Z,28.7
2016-12-27T01:47:39.656Z,28.7
2016-12-27T01:48:38.550Z,28.7
2016-12-27T01:49:38.590Z,28.7
2016-12-27T01:50:39.676Z,28.7
2016-12-27T01:51:38.649Z,28.7
2016-12-27T01:52:38.546Z,28.7
2016-12-27T01:53:38.604Z,28.7
2016-12-27T01:54:39.758Z,28.7
2016-12-27T01:55:38.769Z,28.7
2016-12-27T01:56:38.827Z,28.7
2016-12-27T01:57:39.899Z,28.7
2016-12-27T01:58:38.853Z,28.7
2016-12-27T01:59:38.927Z,28.7
2016-12-27T02:00:38.944Z,28.7
2016-12-27T02:01:38.930Z,28.7
2016-12-27T02:02:38.968Z,28.7
2016-12-27T02:03:38.999Z,28.7
2016-12-27T02:04:39.037Z,28.7
2016-12-27T02:05:40.155Z,28.7
2016-12-27T02:06:40.256Z,28.7
2016-12-27T02:07:40.239Z,28.7
2016-12-27T02:08:40.339Z,28.7
2016-12-27T02:09:40.408Z,28.7
2016-12-27T02:10:40.454Z,28.7
2016-12-27T02:11:39.398Z,28.7
2016-12-27T02:12:39.428Z,28.7
2016-12-27T02:13:39.598Z,28.7
2016-12-27T02:14:39.690Z,28.7
2016-12-27T02:15:39.540Z,28.7
2016-12-27T02:16:40.692Z,28.7
2016-12-27T02:17:39.659Z,28.7
2016-12-27T02:18:39.778Z,28.7
2016-12-27T02:19:40.826Z,28.7
2016-12-27T02:20:40.914Z,28.7
2016-12-27T02:21:40.995Z,28.7
2016-12-27T02:22:39.945Z,28.7
2016-12-27T02:23:39.962Z,28.7
2016-12-27T02:24:40.023Z,28.7
2016-12-27T02:25:40.199Z,28.7
2016-12-27T02:26:41.374Z,28.7
2016-12-27T02:27:41.398Z,28.7
2016-12-27T02:28:40.503Z,28.7
2016-12-27T02:29:40.412Z,28.7
2016-12-27T02:30:41.569Z,28.7
2016-12-27T02:31:41.537Z,28.7
2016-12-27T02:32:40.716Z,28.7
2016-12-27T02:33:40.679Z,28.7
2016-12-27T02:34:41.891Z,28.7
2016-12-27T02:35:40.769Z,28.7
2016-12-27T02:36:41.871Z,28.7
2016-12-27T02:37:40.736Z,28.7
2016-12-27T02:38:40.880Z,28.7
2016-12-27T02:39:41.980Z,28.7
2016-12-27T02:40:40.886Z,28.7
2016-12-27T02:41:42.079Z,28.7
2016-12-27T02:42:41.029Z,28.7
2016-12-27T02:43:42.197Z,28.7
2016-12-27T02:44:41.101Z,28.7
2016-12-27T02:45:41.367Z,28.7
2016-12-27T02:46:41.545Z,28.7
2016-12-27T02:47:42.560Z,28.7
2016-12-27T02:48:42.716Z,28.7
2016-12-27T02:49:42.527Z,28.7
2016-12-27T02:50:42.635Z,28.7
2016-12-27T02:51:41.684Z,28.7
2016-12-27T02:52:42.755Z,28.7
2016-12-27T02:53:42.748Z,28.7
2016-12-27T02:54:41.708Z,28.7
2016-12-27T02:55:41.728Z,28.7
2016-12-27T02:56:41.887Z,28.7
2016-12-27T02:57:41.942Z,28.7
2016-12-27T02:58:43.105Z,28.7
2016-12-27T02:59:42.208Z,28.7
2016-12-27T03:00:42.157Z,28.7
2016-12-27T03:01:42.065Z,28.7
2016-12-27T03:02:43.139Z,28.7
2016-12-27T03:03:43.227Z,28.7
2016-12-27T03:04:42.223Z,28.7
2016-12-27T03:05:43.231Z,28.7
2016-12-27T03:06:43.311Z,28.7
2016-12-27T03:07:42.381Z,28.7
2016-12-27T03:08:43.391Z,28.7
2016-12-27T03:09:42.454Z,28.7
2016-12-27T03:10:43.522Z,28.7
2016-12-27T03:11:43.621Z,28.7
2016-12-27T03:12:42.566Z,28.7
2016-12-27T03:13:42.673Z,28.7
2016-12-27T03:14:42.704Z,28.7
2016-12-27T03:15:43.875Z,28.7
2016-12-27T03:16:43.976Z,28.7
2016-12-27T03:17:43.054Z,28.7
2016-12-27T03:18:43.919Z,28.6
2016-12-27T03:19:43.100Z,28.6
2016-12-27T03:20:43.041Z,28.6
2016-12-27T03:21:43.151Z,28.7
2016-12-27T03:22:44.248Z,28.6
2016-12-27T03:23:43.231Z,28.7
2016-12-27T03:24:43.346Z,28.6
2016-12-27T03:25:44.365Z,28.7
2016-12-27T03:26:44.461Z,28.6
2016-12-27T03:27:43.420Z,28.7
2016-12-27T03:28:43.442Z,28.7
2016-12-27T03:29:44.655Z,28.7
2016-12-27T03:30:44.660Z,28.7
2016-12-27T03:31:44.702Z,28.7
2016-12-27T03:32:44.665Z,28.7
2016-12-27T03:33:44.799Z,28.7
2016-12-27T03:34:43.788Z,28.7
2016-12-27T03:35:43.743Z,28.7
2016-12-27T03:36:43.806Z,28.6
2016-12-27T03:37:43.943Z,28.6
2016-12-27T03:38:44.052Z,28.6
2016-12-27T03:39:45.390Z,28.6
2016-12-27T03:40:46.098Z,28.7
2016-12-27T03:41:46.229Z,28.6
2016-12-27T03:42:46.191Z,28.6
2016-12-27T03:43:46.240Z,28.6
2016-12-27T03:44:45.605Z,28.6
2016-12-27T03:45:44.274Z,28.7
2016-12-27T03:46:44.228Z,28.7
2016-12-27T03:47:45.362Z,28.7
2016-12-27T03:48:45.058Z,28.7
2016-12-27T03:49:45.456Z,28.7
2016-12-27T03:50:45.556Z,28.7
2016-12-27T03:51:45.636Z,28.7
2016-12-27T03:52:44.556Z,28.7
2016-12-27T03:53:44.730Z,28.7
2016-12-27T03:54:45.779Z,28.7
2016-12-27T03:55:44.682Z,28.7
2016-12-27T03:56:45.950Z,28.7
2016-12-27T03:57:45.938Z,28.7
2016-12-27T03:58:44.952Z,28.6
2016-12-27T03:59:44.998Z,28.6
2016-12-27T04:00:45.013Z,28.6
2016-12-27T04:01:44.923Z,28.6
2016-12-27T04:02:46.105Z,28.6
2016-12-27T04:03:45.295Z,28.6
2016-12-27T04:04:46.285Z,28.7
2016-12-27T04:05:46.242Z,28.6
2016-12-27T04:06:46.326Z,28.7
2016-12-27T04:07:45.435Z,28.6
2016-12-27T04:08:46.599Z,28.6
2016-12-27T04:09:46.722Z,28.6
2016-12-27T04:10:46.730Z,28.6
2016-12-27T04:11:45.697Z,28.6
2016-12-27T04:12:46.698Z,28.6
2016-12-27T04:13:46.806Z,28.6
2016-12-27T04:14:45.779Z,28.6
2016-12-27T04:15:46.868Z,28.6
2016-12-27T04:16:45.843Z,28.7
2016-12-27T04:17:46.932Z,28.6
2016-12-27T04:18:47.041Z,28.6
2016-12-27T04:19:45.931Z,28.7
2016-12-27T04:20:47.049Z,28.7
2016-12-27T04:21:47.040Z,28.7
2016-12-27T04:22:46.109Z,28.6
2016-12-27T04:23:47.208Z,28.7
2016-12-27T04:24:47.224Z,28.6
2016-12-27T04:25:46.345Z,28.6
2016-12-27T04:26:46.307Z,28.6
2016-12-27T04:27:47.487Z,28.7
2016-12-27T04:28:46.385Z,28.6
2016-12-27T04:29:46.517Z,28.6
2016-12-27T04:30:46.547Z,28.7
2016-12-27T04:31:46.639Z,28.7
2016-12-27T04:32:47.740Z,28.6
2016-12-27T04:33:47.747Z,28.7
2016-12-27T04:34:46.838Z,28.7
2016-12-27T04:35:46.840Z,28.7
2016-12-27T04:36:46.832Z,28.7
2016-12-27T04:37:47.974Z,28.7
2016-12-27T04:38:48.105Z,28.7
2016-12-27T04:39:46.925Z,28.7
2016-12-27T04:40:48.036Z,28.7
2016-12-27T04:41:47.129Z,28.6
2016-12-27T04:42:47.163Z,28.6
2016-12-27T04:43:47.166Z,28.7
2016-12-27T04:44:47.153Z,28.6
2016-12-27T04:45:47.264Z,28.7
2016-12-27T04:46:48.441Z,28.7
2016-12-27T04:47:48.406Z,28.6
2016-12-27T04:48:49.145Z,28.7
2016-12-27T04:49:48.512Z,28.7
2016-12-27T04:50:48.619Z,28.6
2016-12-27T04:51:47.608Z,28.6
2016-12-27T04:52:48.624Z,28.6
2016-12-27T04:53:47.614Z,28.7
2016-12-27T04:54:47.637Z,28.6
2016-12-27T04:55:47.695Z,28.7
2016-12-27T04:56:48.875Z,28.7
2016-12-27T04:57:48.889Z,28.7
2016-12-27T04:58:48.957Z,28.7
2016-12-27T04:59:47.924Z,28.7
2016-12-27T05:00:48.908Z,28.7
2016-12-27T05:01:47.924Z,28.7
2016-12-27T05:02:47.931Z,28.7
2016-12-27T05:03:48.147Z,28.7
2016-12-27T05:04:49.141Z,28.7
2016-12-27T05:05:49.258Z,28.7
2016-12-27T05:06:49.260Z,28.7
2016-12-27T05:07:49.337Z,28.6
2016-12-27T05:08:49.399Z,28.6
2016-12-27T05:09:48.238Z,28.7
2016-12-27T05:10:48.419Z,28.7
2016-12-27T05:11:49.526Z,28.7
2016-12-27T05:12:49.568Z,28.6
2016-12-27T05:13:48.587Z,28.6
2016-12-27T05:14:48.566Z,28.6
2016-12-27T05:15:48.705Z,28.6
2016-12-27T05:16:49.764Z,28.6
2016-12-27T05:17:49.897Z,28.6
2016-12-27T05:18:49.978Z,28.6
2016-12-27T05:19:48.973Z,28.6
2016-12-27T05:20:50.041Z,28.6
2016-12-27T05:21:50.129Z,28.6
2016-12-27T05:22:50.164Z,28.6
2016-12-27T05:23:49.205Z,28.7
2016-12-27T05:24:50.259Z,28.6
2016-12-27T05:25:49.289Z,28.6
2016-12-27T05:26:49.221Z,28.6
2016-12-27T05:27:50.370Z,28.6
2016-12-27T05:28:50.303Z,28.7
2016-12-27T05:29:49.425Z,28.6
2016-12-27T05:30:50.512Z,28.6
2016-12-27T05:31:50.473Z,28.6
2016-12-27T05:32:49.468Z,28.6
2016-12-27T05:33:50.638Z,28.6
2016-12-27T05:34:49.598Z,28.6
2016-12-27T05:35:50.768Z,28.6
2016-12-27T05:36:50.730Z,28.6
2016-12-27T05:37:50.784Z,28.6
2016-12-27T05:38:50.907Z,28.6
2016-12-27T05:39:50.918Z,28.6
2016-12-27T05:40:50.999Z,28.6
2016-12-27T05:41:50.946Z,28.6
2016-12-27T05:42:51.394Z,28.6
2016-12-27T05:43:51.116Z,28.6
2016-12-27T05:44:49.996Z,28.6
2016-12-27T05:45:50.068Z,28.6
2016-12-27T05:46:51.210Z,28.6
2016-12-27T05:47:51.350Z,28.6
2016-12-27T05:48:52.199Z,28.6
2016-12-27T05:49:50.458Z,28.6
2016-12-27T05:50:51.488Z,28.6
2016-12-27T05:51:51.568Z,28.6
2016-12-27T05:52:50.630Z,28.6
2016-12-27T05:53:50.615Z,28.6
2016-12-27T05:54:51.829Z,28.6
2016-12-27T05:55:51.905Z,28.6
2016-12-27T05:56:50.759Z,28.6
2016-12-27T05:57:50.807Z,28.6
2016-12-27T05:58:51.912Z,28.6
2016-12-27T05:59:50.919Z,28.6
2016-12-27T06:00:52.104Z,28.6
2016-12-27T06:01:52.218Z,28.6
2016-12-27T06:02:52.113Z,28.6
2016-12-27T06:03:52.286Z,28.6
2016-12-27T06:04:51.131Z,28.6
2016-12-27T06:05:52.295Z,28.6
2016-12-27T06:06:52.253Z,28.6
2016-12-27T06:07:51.222Z,28.6
2016-12-27T06:08:52.417Z,28.6
2016-12-27T06:09:51.291Z,28.5
2016-12-27T06:10:51.403Z,28.6
2016-12-27T06:11:52.459Z,28.5
2016-12-27T06:12:51.473Z,28.6
2016-12-27T06:13:52.659Z,28.6
2016-12-27T06:14:52.612Z,28.5
2016-12-27T06:15:51.560Z,28.5
2016-12-27T06:16:51.586Z,28.5
2016-12-27T06:32:53.622Z,28.6
2016-12-27T06:33:53.711Z,28.6
2016-12-27T06:34:52.730Z,28.6
2016-12-27T06:35:52.653Z,28.6
2016-12-27T06:36:53.782Z,28.6
2016-12-27T06:39:53.952Z,28.6
2016-12-27T06:40:52.991Z,28.6
2016-12-27T06:41:53.004Z,28.5
2016-12-27T06:42:52.966Z,28.6
2016-12-27T06:43:52.948Z,28.5
2016-12-27T06:44:55.005Z,28.6
2016-12-27T06:45:53.249Z,28.6
2016-12-27T06:46:56.888Z,28.6
2016-12-27T06:47:54.282Z,28.5
2016-12-27T06:48:54.944Z,28.5
2016-12-27T06:49:53.254Z,28.5
2016-12-27T06:50:53.421Z,28.5
2016-12-27T06:51:53.351Z,28.5
2016-12-27T06:52:53.461Z,28.5
2016-12-27T06:53:54.518Z,28.5
2016-12-27T06:54:53.418Z,28.5
2016-12-27T06:55:53.423Z,28.5
2016-12-27T06:56:53.491Z,28.5
2016-12-27T06:57:53.524Z,28.5
2016-12-27T06:58:53.645Z,28.5
2016-12-27T06:59:53.737Z,28.5
2016-12-27T07:00:54.819Z,28.5
2016-12-27T07:01:54.765Z,28.5
2016-12-27T07:02:54.806Z,28.5
2016-12-27T07:03:54.910Z,28.5
2016-12-27T07:04:53.860Z,28.5
2016-12-27T07:05:53.914Z,28.5
2016-12-27T07:06:54.026Z,28.5
2016-12-27T07:07:55.067Z,28.5
2016-12-27T07:08:54.151Z,28.5
2016-12-27T07:09:55.215Z,28.5
2016-12-27T07:10:55.284Z,28.5
2016-12-27T07:11:55.291Z,28.5
2016-12-27T07:12:54.368Z,28.5
2016-12-27T07:13:55.512Z,28.5
2016-12-27T07:14:54.485Z,28.5
2016-12-27T07:15:54.505Z,28.5
2016-12-27T07:16:54.482Z,28.5
2016-12-27T07:17:55.598Z,28.5
2016-12-27T07:18:55.715Z,28.5
2016-12-27T07:19:54.655Z,28.5
2016-12-27T07:20:54.660Z,28.5
2016-12-27T07:21:55.737Z,28.5
2016-12-27T07:22:55.758Z,28.5
2016-12-27T07:23:54.785Z,28.5
2016-12-27T07:24:54.867Z,28.5
2016-12-27T07:25:54.868Z,28.5
2016-12-27T07:26:54.969Z,28.5
2016-12-27T07:27:54.963Z,28.5
2016-12-27T07:28:56.118Z,28.5
2016-12-27T07:29:55.080Z,28.5
2016-12-27T07:30:55.077Z,28.5
2016-12-27T07:31:56.153Z,28.5
2016-12-27T07:32:55.226Z,28.5
2016-12-27T07:33:56.290Z,28.5
2016-12-27T07:34:56.321Z,28.5
2016-12-27T07:35:55.320Z,28.5
2016-12-27T07:36:55.286Z,28.5
2016-12-27T07:37:55.313Z,28.5
2016-12-27T07:38:56.410Z,28.5
2016-12-27T07:39:56.500Z,28.5
2016-12-27T07:40:55.440Z,28.5
2016-12-27T07:41:55.478Z,28.5
2016-12-27T07:42:56.601Z,28.5
2016-12-27T07:57:57.480Z,28.5
2016-12-27T07:58:56.538Z,28.5
2016-12-27T07:59:56.595Z,28.5
2016-12-27T08:00:56.651Z,28.5
2016-12-27T08:01:57.675Z,28.5
2016-12-27T08:02:57.748Z,28.5
2016-12-27T08:04:57.951Z,28.5
2016-12-27T08:05:57.915Z,28.5
2016-12-27T08:06:56.872Z,28.5
2016-12-27T08:09:57.103Z,28.5
2016-12-27T08:10:58.190Z,28.5
2016-12-27T08:11:57.162Z,28.5
2016-12-27T08:12:58.311Z,28.5
2016-12-27T08:13:58.427Z,28.5
2016-12-27T08:15:58.504Z,28.4
2016-12-27T08:16:58.534Z,28.4
2016-12-27T08:17:58.514Z,28.4
2016-12-27T08:18:57.515Z,28.4
2016-12-27T08:19:57.635Z,28.4
2016-12-27T08:20:58.726Z,28.4
2016-12-27T08:21:58.780Z,28.4
2016-12-27T08:22:58.725Z,28.4
2016-12-27T08:23:58.820Z,28.4
2016-12-27T08:24:57.797Z,28.4
2016-12-27T08:25:57.912Z,28.4
2016-12-27T08:26:58.996Z,28.4
2016-12-27T08:27:59.018Z,28.4
2016-12-27T08:28:58.067Z,28.4
2016-12-27T08:29:59.087Z,28.4
2016-12-27T08:30:59.156Z,28.4
2016-12-27T08:31:59.188Z,28.4
2016-12-27T08:32:58.113Z,28.3
2016-12-27T08:33:58.204Z,28.4
2016-12-27T08:34:58.224Z,28.3
2016-12-27T08:35:59.300Z,28.3
2016-12-27T08:36:58.278Z,28.3
2016-12-27T08:37:59.457Z,28.3
2016-12-27T08:38:59.521Z,28.4
2016-12-27T08:39:58.522Z,28.3
2016-12-27T08:40:59.604Z,28.3
2016-12-27T08:41:59.573Z,28.3
2016-12-27T08:42:59.708Z,28.3
2016-12-27T08:43:59.759Z,28.3
2016-12-27T08:44:58.869Z,28.4
2016-12-27T08:45:59.872Z,28.4
2016-12-27T08:46:59.920Z,28.3
2016-12-27T08:47:59.511Z,28.3
2016-12-27T08:48:59.032Z,28.3
2016-12-27T08:49:59.007Z,28.3
2016-12-27T08:50:59.181Z,28.3
2016-12-27T08:52:00.224Z,28.3
2016-12-27T08:53:00.378Z,28.3
2016-12-27T08:53:59.381Z,28.3
2016-12-27T08:55:00.491Z,28.3
2016-12-27T08:55:59.497Z,28.3
2016-12-27T08:56:59.504Z,28.3
2016-12-27T08:58:00.575Z,28.3
2016-12-27T08:59:00.658Z,28.3
2016-12-27T08:59:59.622Z,28.3
2016-12-27T09:01:00.753Z,28.3
2016-12-27T09:02:00.870Z,28.3
2016-12-27T09:02:59.789Z,28.3
2016-12-27T09:04:00.948Z,28.3
2016-12-27T09:05:00.883Z,28.3
2016-12-27T09:06:00.914Z,28.3
2016-12-27T09:07:00.003Z,28.3
2016-12-27T09:08:00.059Z,28.2
2016-12-27T09:09:01.158Z,28.2
2016-12-27T09:10:00.147Z,28.2
2016-12-27T09:11:01.204Z,28.2
2016-12-27T09:12:01.236Z,28.2
2016-12-27T09:13:00.238Z,28.2
2016-12-27T09:14:00.367Z,28.2
2016-12-27T09:15:00.462Z,28.2
2016-12-27T09:16:01.598Z,28.2
2016-12-27T09:17:01.539Z,28.2
2016-12-27T09:18:00.528Z,28.2
2016-12-27T09:19:01.753Z,28.1
2016-12-27T09:20:01.741Z,28.1
2016-12-27T09:21:00.753Z,28.1
2016-12-27T09:22:01.910Z,28.1
2016-12-27T09:23:00.952Z,28.1
2016-12-27T09:24:01.037Z,28.1
2016-12-27T09:25:02.180Z,28.1
2016-12-27T09:26:01.114Z,28.1
2016-12-27T09:27:01.272Z,28.1
2016-12-27T09:28:01.280Z,28.1
2016-12-27T09:29:02.385Z,28.1
2016-12-27T09:30:02.359Z,28
2016-12-27T09:31:01.335Z,28
2016-12-27T09:32:02.500Z,28
2016-12-27T09:33:01.589Z,28
2016-12-27T09:34:02.673Z,28
2016-12-27T09:35:02.633Z,27.9
2016-12-27T09:36:01.646Z,27.9
2016-12-27T09:37:01.700Z,27.9
2016-12-27T09:38:01.766Z,27.9
2016-12-27T09:47:48.477Z,28
2016-12-27T09:48:48.457Z,28
2016-12-27T09:49:48.643Z,28
2016-12-27T09:50:48.618Z,28
2016-12-27T09:51:48.699Z,28
2016-12-27T09:52:47.795Z,28
2016-12-27T09:53:48.894Z,28
2016-12-27T09:54:48.873Z,28
2016-12-27T09:55:47.977Z,28
2016-12-27T09:56:47.967Z,28
2016-12-27T09:57:48.120Z,28
2016-12-27T09:59:49.253Z,27.9
2016-12-27T10:00:49.289Z,27.9
2016-12-27T10:01:49.284Z,27.9
2016-12-27T10:02:49.449Z,27.9
2016-12-27T10:03:48.467Z,27.8
2016-12-27T10:04:48.502Z,27.8
2016-12-27T10:05:48.662Z,27.8
2016-12-27T10:06:49.652Z,27.8
2016-12-27T10:07:48.658Z,27.8
2016-12-27T10:08:48.736Z,27.7
2016-12-27T10:09:49.834Z,27.7
2016-12-27T10:10:49.934Z,27.7
2016-12-27T10:11:48.947Z,27.7
2016-12-27T10:12:49.972Z,27.7
2016-12-27T10:13:49.021Z,27.7
2016-12-27T10:14:49.055Z,27.7
2016-12-27T10:15:49.134Z,27.6
2016-12-27T10:16:49.181Z,27.6
2016-12-27T10:17:49.174Z,27.6
2016-12-27T10:18:49.259Z,27.6
2016-12-27T10:19:49.231Z,27.5
2016-12-27T10:20:49.302Z,27.5
2016-12-27T10:21:50.342Z,27.5
2016-12-27T10:22:50.351Z,27.5
2016-12-27T10:23:50.499Z,27.5
2016-12-27T10:24:49.571Z,27.5
2016-12-27T10:25:49.622Z,27.5
2016-12-27T10:26:49.711Z,27.5
2016-12-27T10:31:50.006Z,27.6
2016-12-27T10:32:50.075Z,27.6
2016-12-27T10:33:49.993Z,27.6
2016-12-27T10:34:51.219Z,27.6
2016-12-27T10:35:51.326Z,27.6
2016-12-27T10:36:50.210Z,27.6
2016-12-27T10:37:50.375Z,27.6
2016-12-27T10:38:51.388Z,27.6
2016-12-27T10:39:50.346Z,27.6
2016-12-27T10:40:51.470Z,27.6
2016-12-27T10:41:50.513Z,27.6
2016-12-27T10:42:50.616Z,27.6
2016-12-27T10:43:51.778Z,27.6
2016-12-27T10:44:51.487Z,27.7
2016-12-27T10:45:52.106Z,27.7
2016-12-27T10:46:52.083Z,27.7
2016-12-27T10:47:52.213Z,27.7
2016-12-27T12:02:56.026Z,27.8
2016-12-27T12:03:55.114Z,27.8
2016-12-27T12:04:56.205Z,27.8
2016-12-27T12:05:56.299Z,27.8
2016-12-27T12:06:55.278Z,27.8
2016-12-27T12:07:55.373Z,27.8
2016-12-27T12:08:55.566Z,27.8
2016-12-27T12:09:55.540Z,27.8
2016-12-27T12:10:56.750Z,27.8
2016-12-27T12:11:56.723Z,27.8
2016-12-27T12:12:56.750Z,27.8
2016-12-27T12:13:55.739Z,27.8
2016-12-27T12:14:56.863Z,27.8
2016-12-27T12:15:56.906Z,27.8
2016-12-27T12:16:56.865Z,27.8
2016-12-27T12:17:55.897Z,27.8
2016-12-27T12:18:56.954Z,27.8
2016-12-27T12:19:57.048Z,27.8
2016-12-27T12:20:57.049Z,27.8
2016-12-27T12:21:56.092Z,27.8
2016-12-27T12:22:57.158Z,27.8
2016-12-27T12:23:56.773Z,27.8
2016-12-27T12:24:56.339Z,27.8
2016-12-27T12:25:57.439Z,27.8
2016-12-27T12:26:57.425Z,27.8
2016-12-27T12:27:56.548Z,27.8
2016-12-27T12:28:57.571Z,27.8
2016-12-27T12:29:56.613Z,27.8
2016-12-27T12:30:57.666Z,27.8
2016-12-27T12:31:56.682Z,27.8
2016-12-27T12:32:56.658Z,27.8
2016-12-27T12:33:57.781Z,27.8
2016-12-27T12:34:56.817Z,27.8
2016-12-27T12:35:57.920Z,27.8
2016-12-27T12:36:56.841Z,27.9
2016-12-27T12:37:58.069Z,27.9
2016-12-27T12:38:57.085Z,27.9
2016-12-27T12:39:58.163Z,27.9
2016-12-27T12:40:57.112Z,27.9
2016-12-27T12:41:57.089Z,27.9
2016-12-27T12:42:58.265Z,27.9
2016-12-27T12:43:58.273Z,27.9
2016-12-27T12:44:57.233Z,27.9
2016-12-27T12:45:58.390Z,27.9
2016-12-27T12:46:57.393Z,27.9
2016-12-27T12:47:57.482Z,27.9
2016-12-27T12:48:58.495Z,27.9
2016-12-27T12:49:58.588Z,27.9
2016-12-27T12:50:57.602Z,27.9
2016-12-27T12:51:57.652Z,27.9
2016-12-27T12:52:57.587Z,28
2016-12-27T12:53:58.761Z,27.9
2016-12-27T12:54:58.841Z,28
2016-12-27T12:55:57.864Z,28
2016-12-27T12:56:57.890Z,28
2016-12-27T12:57:57.881Z,28
2016-12-27T12:58:57.963Z,28
2016-12-27T12:59:58.040Z,28
2016-12-27T13:00:58.267Z,28
2016-12-27T13:01:59.316Z,28
2016-12-27T13:02:59.275Z,28
2016-12-27T13:03:59.281Z,28
2016-12-27T13:04:58.299Z,28
2016-12-27T13:05:58.391Z,28
2016-12-27T13:06:59.540Z,28
2016-12-27T13:07:58.456Z,28
2016-12-27T13:08:58.419Z,28
2016-12-27T13:09:58.476Z,28
2016-12-27T13:10:58.642Z,28
2016-12-27T13:11:59.700Z,28
2016-12-27T13:12:58.723Z,28
2016-12-27T13:13:58.666Z,28
2016-12-27T13:14:58.734Z,28
2016-12-27T13:15:58.757Z,28
2016-12-27T13:16:58.733Z,28
2016-12-27T13:18:00.029Z,28
2016-12-27T13:18:59.982Z,28
2016-12-27T13:19:58.912Z,27.9
2016-12-27T13:20:59.073Z,27.9
2016-12-27T13:22:00.108Z,27.9
2016-12-27T13:22:59.150Z,27.9
2016-12-27T13:23:59.215Z,27.9
2016-12-27T13:24:59.175Z,27.9
2016-12-27T13:26:00.334Z,27.9
2016-12-27T13:26:59.283Z,27.9
2016-12-27T13:27:59.360Z,27.9
2016-12-27T13:29:00.530Z,27.9
2016-12-27T13:30:00.548Z,27.9
2016-12-27T13:31:00.660Z,27.9
2016-12-27T13:32:00.679Z,27.9
2016-12-27T13:32:59.600Z,27.9
2016-12-27T13:33:59.651Z,27.9
2016-12-27T13:34:59.755Z,27.9
2016-12-27T13:35:59.746Z,27.9
2016-12-27T13:36:59.791Z,27.9
2016-12-27T13:38:00.841Z,27.9
2016-12-27T13:38:59.874Z,27.9
2016-12-27T13:40:01.017Z,27.9
2016-12-27T13:41:00.124Z,27.9
2016-12-27T13:42:01.290Z,27.9
2016-12-27T13:43:00.326Z,27.9
2016-12-27T13:44:00.306Z,27.9
2016-12-27T13:45:00.363Z,27.9
2016-12-27T13:46:00.382Z,28
2016-12-27T13:47:00.418Z,27.9
2016-12-27T13:48:01.553Z,28
2016-12-27T13:49:00.446Z,28
2016-12-27T13:50:00.564Z,28
2016-12-27T13:51:01.684Z,28
2016-12-27T13:52:01.735Z,28
2016-12-27T13:53:00.755Z,28
2016-12-27T13:54:01.897Z,28
2016-12-27T13:55:00.935Z,28
2016-12-27T13:56:01.091Z,28
2016-12-27T13:57:02.153Z,28
2016-12-27T13:58:01.047Z,28
2016-12-27T13:59:01.074Z,28
2016-12-27T14:00:02.181Z,28
2016-12-27T14:01:01.165Z,28
2016-12-27T14:02:02.277Z,28
2016-12-27T14:03:02.372Z,28
2016-12-27T14:04:02.317Z,28
2016-12-27T14:05:01.387Z,28
2016-12-27T14:06:02.392Z,28
2016-12-27T14:07:02.523Z,28
2016-12-27T14:08:01.569Z,28
2016-12-27T14:09:02.599Z,28
2016-12-27T14:10:02.710Z,28
2016-12-27T14:11:02.731Z,28
2016-12-27T14:12:01.819Z,28
2016-12-27T14:13:01.774Z,28.1
2016-12-27T14:14:02.938Z,28.1
2016-12-27T14:15:01.861Z,28.1
2016-12-27T14:16:03.076Z,28.1
2016-12-27T14:17:03.063Z,28.1
2016-12-27T14:18:03.026Z,28.1
2016-12-27T14:19:03.100Z,28.1
2016-12-27T14:20:03.179Z,28.1
2016-12-27T14:21:03.227Z,28.1
2016-12-27T14:22:02.128Z,28.1
2016-12-27T14:23:03.242Z,28.1
2016-12-27T14:24:02.236Z,28.1
2016-12-27T14:25:03.366Z,28.1
2016-12-27T14:26:02.383Z,28.1
2016-12-27T14:27:02.546Z,28.1
2016-12-27T14:28:02.504Z,28.1
2016-12-27T14:29:02.598Z,28.1
2016-12-27T14:30:02.730Z,28.1
2016-12-27T14:31:02.819Z,28.1
2016-12-27T14:32:02.749Z,28.1
2016-12-27T14:33:03.873Z,28.1
2016-12-27T14:34:02.942Z,28.1
2016-12-27T14:35:02.924Z,28.1
2016-12-27T14:36:04.129Z,28.1
2016-12-27T14:37:03.220Z,28.1
2016-12-27T14:38:04.320Z,28.1
2016-12-27T14:39:03.360Z,28.1
2016-12-27T14:40:04.384Z,28.1
2016-12-27T14:41:03.449Z,28.1
2016-12-27T14:42:03.595Z,28.1
2016-12-27T14:43:04.561Z,28.1
2016-12-27T14:44:03.604Z,28.1
2016-12-27T14:45:04.625Z,28.1
2016-12-27T14:46:03.648Z,28.1
2016-12-27T14:47:03.701Z,28.1
2016-12-27T14:48:04.782Z,28.1
2016-12-27T14:49:03.719Z,28.1
2016-12-27T14:50:04.752Z,28.1
2016-12-27T14:51:03.807Z,28.1
2016-12-27T14:52:04.900Z,28.1
2016-12-27T14:53:04.915Z,28.1
2016-12-27T14:54:03.934Z,28.1
2016-12-27T14:55:03.929Z,28.1
2016-12-27T14:56:04.912Z,28.1
2016-12-27T14:57:03.952Z,28.1
2016-12-27T14:58:04.038Z,28.1
2016-12-27T14:59:04.031Z,28.1
2016-12-27T15:00:05.162Z,28.1
2016-12-27T15:01:04.185Z,28.1
2016-12-27T15:02:04.185Z,28.1
2016-12-27T15:03:04.184Z,28.1
2016-12-27T15:04:05.343Z,28.1
2016-12-27T15:05:04.323Z,28.1
2016-12-27T15:06:05.498Z,28.1
2016-12-27T15:07:05.426Z,28.1
2016-12-27T15:08:04.378Z,28.1
2016-12-27T15:09:04.498Z,28.1
2016-12-27T15:10:04.439Z,28.2
2016-12-27T15:11:04.478Z,28.2
2016-12-27T15:12:05.688Z,28.2
2016-12-27T15:13:05.642Z,28.2
2016-12-27T15:14:05.764Z,28.2
2016-12-27T15:15:04.647Z,28.2
2016-12-27T15:16:05.843Z,28.2
2016-12-27T15:17:05.880Z,28.2
2016-12-27T15:18:04.878Z,28.2
2016-12-27T15:19:06.045Z,28.2
2016-12-27T15:20:04.957Z,28.2
2016-12-27T15:21:04.958Z,28.2
2016-12-27T15:22:06.141Z,28.2
2016-12-27T15:23:06.082Z,28.2
2016-12-27T15:24:06.213Z,28.2
2016-12-27T15:25:05.270Z,28.2
2016-12-27T15:26:05.348Z,28.2
2016-12-27T15:27:06.422Z,28.2